Time;durP1;ratioP1;P1;durP2;ratioP2;P2;SDS_P1;SDS_P2;PMS_P1;PMS_P2;Temp;Humidity;BMP_temperature;BMP_pressure;BME280_temperature;BME280_humidity;BME280_pressure;Samples;Min_cycle;Max_cycle;Signal;HPM_P1;HPM_P2
2023/03/26 00:00:31;;;;;;;18.90;3.33;;;;;;;;;;5064912;28;20063;-67
2023/03/26 00:02:58;;;;;;;27.75;3.38;;;;;;;;;;5080472;28;20040;-67
2023/03/26 00:05:26;;;;;;;28.65;2.78;;;;;;;;;;5081729;28;20063;-67
2023/03/26 00:07:54;;;;;;;25.20;3.00;;;;;;;;;;5079246;28;20131;-68
2023/03/26 00:10:22;;;;;;;23.20;3.05;;;;;;;;;;5085734;28;20052;-68
2023/03/26 00:12:49;;;;;;;23.70;3.30;;;;;;;;;;5084327;28;20071;-68
2023/03/26 00:15:16;;;;;;;30.45;3.40;;;;;;;;;;5064537;28;20071;-68
2023/03/26 00:17:45;;;;;;;27.38;3.42;;;;;;;;;;5078357;28;20044;-68
2023/03/26 00:20:12;;;;;;;24.60;3.22;;;;;;;;;;5085186;28;20072;-68
2023/03/26 00:22:40;;;;;;;32.92;3.08;;;;;;;;;;5083546;28;20048;-68
2023/03/26 00:25:09;;;;;;;29.98;3.70;;;;;;;;;;5082098;28;20046;-68
2023/03/26 00:27:36;;;;;;;21.35;2.55;;;;;;;;;;5085394;28;20132;-68
2023/03/26 00:30:04;;;;;;;22.88;3.22;;;;;;;;;;5080710;28;20044;-68
2023/03/26 00:32:31;;;;;;;32.60;3.35;;;;;;;;;;5083587;28;20044;-68
2023/03/26 00:34:59;;;;;;;23.58;3.00;;;;;;;;;;5083040;28;20048;-68
2023/03/26 00:37:26;;;;;;;21.90;3.00;;;;;;;;;;5083757;28;20127;-68
2023/03/26 00:39:58;;;;;;;28.83;3.17;;;;;;;;;;5088956;28;20044;-68
2023/03/26 00:42:26;;;;;;;37.40;3.35;;;;;;;;;;5089535;28;20067;-68
2023/03/26 00:44:56;;;;;;;27.95;3.60;;;;;;;;;;5069026;28;20051;-68
2023/03/26 00:47:23;;;;;;;29.13;3.50;;;;;;;;;;5078558;28;20051;-68
2023/03/26 00:49:51;;;;;;;18.45;3.20;;;;;;;;;;5086408;28;20048;-68
2023/03/26 00:52:18;;;;;;;32.28;3.38;;;;;;;;;;5085133;28;20067;-68
2023/03/26 00:54:46;;;;;;;30.27;3.35;;;;;;;;;;5081403;28;20047;-68
2023/03/26 00:57:13;;;;;;;24.38;3.03;;;;;;;;;;5084799;28;20071;-68
2023/03/26 00:59:42;;;;;;;22.20;2.90;;;;;;;;;;5083185;28;20049;-68
2023/03/26 01:02:15;;;;;;;20.67;3.20;;;;;;;;;;5082564;28;20051;-68
2023/03/26 01:04:45;;;;;;;25.95;3.50;;;;;;;;;;5082956;28;20048;-67
2023/03/26 01:07:13;;;;;;;23.48;2.80;;;;;;;;;;5084713;28;20060;-68
2023/03/26 01:09:43;;;;;;;22.40;3.15;;;;;;;;;;5073679;28;20097;-67
2023/03/26 01:12:12;;;;;;;30.10;3.42;;;;;;;;;;5085670;28;20662;-68
2023/03/26 01:14:39;;;;;;;19.73;2.75;;;;;;;;;;5082726;28;20159;-67
2023/03/26 01:17:08;;;;;;;27.98;3.17;;;;;;;;;;5085602;28;20056;-67
2023/03/26 01:19:38;;;;;;;22.88;3.50;;;;;;;;;;5081465;28;20456;-68
2023/03/26 01:22:05;;;;;;;24.17;3.35;;;;;;;;;;5085700;28;20162;-68
2023/03/26 01:24:34;;;;;;;28.90;3.22;;;;;;;;;;5085831;28;20487;-68
2023/03/26 01:27:10;;;;;;;21.42;2.85;;;;;;;;;;5086378;28;20048;-67
2023/03/26 01:29:42;;;;;;;22.63;2.60;;;;;;;;;;5085968;28;20055;-67
2023/03/26 01:32:16;;;;;;;37.30;3.30;;;;;;;;;;5079963;28;20067;-68
2023/03/26 01:34:51;;;;;;;30.25;3.85;;;;;;;;;;5081652;28;20057;-68
2023/03/26 01:37:21;;;;;;;23.70;3.13;;;;;;;;;;5078316;28;20045;-68
2023/03/26 01:39:55;;;;;;;26.48;3.72;;;;;;;;;;5060062;28;20149;-68
2023/03/26 01:42:27;;;;;;;34.10;3.58;;;;;;;;;;5083299;28;20040;-68
2023/03/26 01:44:57;;;;;;;33.75;2.97;;;;;;;;;;5081067;28;20060;-68
2023/03/26 01:47:24;;;;;;;36.45;4.18;;;;;;;;;;5081936;28;20051;-68
2023/03/26 01:49:52;;;;;;;20.35;3.10;;;;;;;;;;5077985;28;20392;-68
2023/03/26 01:52:23;;;;;;;26.02;3.40;;;;;;;;;;5078611;28;20044;-67
2023/03/26 01:54:53;;;;;;;32.20;3.60;;;;;;;;;;5082501;28;20090;-68
2023/03/26 01:57:22;;;;;;;26.63;3.42;;;;;;;;;;5085217;28;20077;-68
2023/03/26 01:59:58;;;;;;;29.50;3.08;;;;;;;;;;5080200;28;20040;-67
2023/03/26 02:02:30;;;;;;;24.98;2.90;;;;;;;;;;5078787;28;20048;-68
2023/03/26 02:05:01;;;;;;;23.80;3.05;;;;;;;;;;5083148;28;20052;-68
2023/03/26 02:07:33;;;;;;;25.17;3.95;;;;;;;;;;5082414;28;20048;-68
2023/03/26 02:10:09;;;;;;;25.80;2.27;;;;;;;;;;5079981;28;20040;-68
2023/03/26 02:12:37;;;;;;;26.70;3.65;;;;;;;;;;5084149;28;20161;-67
2023/03/26 02:15:05;;;;;;;22.73;2.60;;;;;;;;;;5083144;28;20044;-68
2023/03/26 02:17:32;;;;;;;20.90;2.92;;;;;;;;;;5079548;28;20462;-68
2023/03/26 02:20:04;;;;;;;22.00;3.83;;;;;;;;;;5081502;28;20501;-68
2023/03/26 02:22:32;;;;;;;25.02;2.75;;;;;;;;;;5087461;28;20044;-68
2023/03/26 02:24:59;;;;;;;20.13;3.45;;;;;;;;;;5086195;28;20059;-68
2023/03/26 02:27:28;;;;;;;25.17;3.17;;;;;;;;;;5068995;28;20051;-68
2023/03/26 02:29:55;;;;;;;28.52;2.53;;;;;;;;;;5084218;28;20121;-68
2023/03/26 02:32:22;;;;;;;19.02;2.40;;;;;;;;;;5089674;28;20055;-67
2023/03/26 02:34:50;;;;;;;16.15;2.40;;;;;;;;;;5088051;28;20044;-68
2023/03/26 02:37:18;;;;;;;19.98;2.40;;;;;;;;;;5087514;28;20082;-68
2023/03/26 02:39:45;;;;;;;19.85;2.10;;;;;;;;;;5089520;28;20048;-67
2023/03/26 02:42:14;;;;;;;17.38;2.38;;;;;;;;;;5086696;28;20050;-67
2023/03/26 02:44:43;;;;;;;21.88;3.08;;;;;;;;;;5078747;28;20504;-67
2023/03/26 02:47:10;;;;;;;20.23;2.38;;;;;;;;;;5084169;28;20380;-67
2023/03/26 02:49:38;;;;;;;19.35;2.28;;;;;;;;;;5086873;28;20047;-68
2023/03/26 02:52:06;;;;;;;19.40;2.50;;;;;;;;;;5088283;28;20119;-68
2023/03/26 02:54:33;;;;;;;18.00;3.42;;;;;;;;;;5082023;28;20388;-67
2023/03/26 02:57:01;;;;;;;18.05;2.20;;;;;;;;;;5088212;28;20119;-68
2023/03/26 02:59:28;;;;;;;22.75;3.67;;;;;;;;;;5086809;28;20059;-67
2023/03/26 03:01:57;;;;;;;24.77;2.60;;;;;;;;;;5082703;28;20152;-67
2023/03/26 03:04:24;;;;;;;25.90;2.60;;;;;;;;;;5090178;28;20411;-67
2023/03/26 03:06:56;;;;;;;26.77;2.95;;;;;;;;;;5085903;28;20067;-67
2023/03/26 03:09:23;;;;;;;22.05;3.42;;;;;;;;;;5081796;28;20228;-67
2023/03/26 03:11:51;;;;;;;21.23;2.78;;;;;;;;;;5069367;28;20538;-68
2023/03/26 03:14:19;;;;;;;17.90;2.72;;;;;;;;;;5085314;28;20044;-68
2023/03/26 03:16:46;;;;;;;19.90;2.55;;;;;;;;;;5081112;28;20055;-68
2023/03/26 03:19:15;;;;;;;22.25;2.60;;;;;;;;;;5086753;28;20538;-68
2023/03/26 03:21:42;;;;;;;29.55;3.00;;;;;;;;;;5084267;28;20052;-68
2023/03/26 03:24:12;;;;;;;31.67;4.03;;;;;;;;;;5077756;28;20058;-68
2023/03/26 03:26:41;;;;;;;28.50;3.05;;;;;;;;;;5081396;28;20048;-68
2023/03/26 03:29:08;;;;;;;31.50;5.30;;;;;;;;;;5078124;28;20044;-67
2023/03/26 03:31:35;;;;;;;28.00;3.03;;;;;;;;;;5060700;28;20066;-67
2023/03/26 03:34:02;;;;;;;16.05;2.40;;;;;;;;;;5087214;28;20040;-67
2023/03/26 03:36:32;;;;;;;18.25;2.83;;;;;;;;;;5083928;28;20055;-67
2023/03/26 03:39:01;;;;;;;22.05;2.97;;;;;;;;;;5081220;28;20121;-67
2023/03/26 03:41:28;;;;;;;24.60;2.70;;;;;;;;;;5084846;28;20048;-67
2023/03/26 03:43:58;;;;;;;18.95;2.05;;;;;;;;;;5060854;28;20056;-67
2023/03/26 03:46:25;;;;;;;24.95;2.67;;;;;;;;;;5078589;28;20071;-68
2023/03/26 03:48:53;;;;;;;13.73;2.08;;;;;;;;;;5084394;28;20048;-68
2023/03/26 03:51:20;;;;;;;25.40;2.30;;;;;;;;;;5090233;28;20048;-67
2023/03/26 03:53:49;;;;;;;19.48;3.08;;;;;;;;;;5080819;28;20040;-67
2023/03/26 03:56:17;;;;;;;20.48;2.28;;;;;;;;;;5079018;28;20067;-68
2023/03/26 03:58:46;;;;;;;21.27;2.42;;;;;;;;;;5068108;28;20509;-67
2023/03/26 04:01:14;;;;;;;21.90;2.38;;;;;;;;;;5088132;28;20055;-68
2023/03/26 04:03:44;;;;;;;22.63;3.60;;;;;;;;;;5086889;28;20139;-68
2023/03/26 04:06:12;;;;;;;23.38;2.78;;;;;;;;;;5082250;28;20050;-68
2023/03/26 04:08:39;;;;;;;24.30;2.67;;;;;;;;;;5083213;28;20059;-67
2023/03/26 04:11:08;;;;;;;24.02;3.35;;;;;;;;;;5081949;28;20052;-67
2023/03/26 04:13:36;;;;;;;26.17;2.72;;;;;;;;;;5085709;28;20067;-67
2023/03/26 04:16:03;;;;;;;25.05;3.28;;;;;;;;;;5089962;28;20105;-68
2023/03/26 04:18:31;;;;;;;14.15;2.05;;;;;;;;;;5086060;28;20048;-68
2023/03/26 04:21:01;;;;;;;21.17;2.13;;;;;;;;;;5087415;28;20079;-67
2023/03/26 04:23:29;;;;;;;35.97;3.28;;;;;;;;;;5066172;28;20454;-68
2023/03/26 04:25:57;;;;;;;19.58;2.60;;;;;;;;;;5089272;28;20048;-68
2023/03/26 04:28:29;;;;;;;18.67;2.40;;;;;;;;;;5085826;28;20086;-67
2023/03/26 04:30:59;;;;;;;23.58;2.30;;;;;;;;;;5085815;28;20138;-68
2023/03/26 04:33:27;;;;;;;18.33;2.45;;;;;;;;;;5082637;28;20124;-67
2023/03/26 04:35:55;;;;;;;25.48;2.63;;;;;;;;;;5087790;28;20452;-68
2023/03/26 04:38:23;;;;;;;22.35;2.40;;;;;;;;;;5086618;28;20052;-68
2023/03/26 04:40:50;;;;;;;22.88;2.42;;;;;;;;;;5087152;28;20044;-68
2023/03/26 04:43:18;;;;;;;27.05;3.95;;;;;;;;;;5084265;28;20414;-67
2023/03/26 04:45:46;;;;;;;26.00;3.65;;;;;;;;;;5084015;28;20399;-67
2023/03/26 04:48:14;;;;;;;27.08;3.00;;;;;;;;;;5084117;28;20403;-68
2023/03/26 04:50:42;;;;;;;27.08;3.33;;;;;;;;;;5085021;28;20135;-67
2023/03/26 04:53:12;;;;;;;20.90;3.10;;;;;;;;;;5088393;28;20055;-68
2023/03/26 04:55:42;;;;;;;26.48;2.97;;;;;;;;;;5081847;28;20054;-68
2023/03/26 04:58:12;;;;;;;19.38;2.53;;;;;;;;;;5077253;28;20051;-68
2023/03/26 05:00:40;;;;;;;21.20;2.42;;;;;;;;;;5079127;28;20131;-68
2023/03/26 05:03:11;;;;;;;24.40;3.42;;;;;;;;;;5082508;28;20055;-67
2023/03/26 05:05:39;;;;;;;19.40;3.13;;;;;;;;;;5077925;28;20453;-67
2023/03/26 05:08:06;;;;;;;20.27;2.20;;;;;;;;;;5084773;28;20044;-68
2023/03/26 05:10:34;;;;;;;23.08;3.03;;;;;;;;;;5080021;28;20048;-68
2023/03/26 05:13:01;;;;;;;25.00;2.53;;;;;;;;;;5086108;28;20056;-68
2023/03/26 05:15:28;;;;;;;17.48;2.35;;;;;;;;;;5082153;28;20052;-67
2023/03/26 05:17:55;;;;;;;33.88;4.25;;;;;;;;;;5066559;28;20555;-67
2023/03/26 05:20:25;;;;;;;18.40;2.10;;;;;;;;;;5081694;28;20063;-67
2023/03/26 05:22:53;;;;;;;20.70;2.33;;;;;;;;;;5079629;28;20051;-68
2023/03/26 05:25:20;;;;;;;18.13;2.28;;;;;;;;;;5078504;28;20040;-68
2023/03/26 05:27:47;;;;;;;30.52;2.92;;;;;;;;;;5082384;28;20502;-68
2023/03/26 05:30:15;;;;;;;27.65;2.20;;;;;;;;;;5081356;28;20066;-68
2023/03/26 05:32:43;;;;;;;21.20;2.78;;;;;;;;;;5080057;28;20044;-68
2023/03/26 05:35:11;;;;;;;22.35;2.33;;;;;;;;;;5079578;28;20048;-68
2023/03/26 05:37:40;;;;;;;23.95;2.67;;;;;;;;;;5085954;28;20055;-67
2023/03/26 05:40:10;;;;;;;20.20;2.40;;;;;;;;;;5081709;28;20640;-68
2023/03/26 05:42:38;;;;;;;19.38;2.53;;;;;;;;;;5079098;28;20091;-68
2023/03/26 05:45:07;;;;;;;25.00;2.63;;;;;;;;;;5084585;28;20059;-68
2023/03/26 05:47:34;;;;;;;19.08;2.58;;;;;;;;;;5065005;28;20052;-68
2023/03/26 05:50:01;;;;;;;21.92;2.53;;;;;;;;;;5082425;28;20048;-67
2023/03/26 05:52:29;;;;;;;24.73;3.25;;;;;;;;;;5081614;28;20072;-68
2023/03/26 05:54:57;;;;;;;25.60;3.67;;;;;;;;;;5063119;28;20040;-68
2023/03/26 05:57:27;;;;;;;22.58;3.03;;;;;;;;;;5066513;28;20044;-67
2023/03/26 05:59:55;;;;;;;28.02;3.05;;;;;;;;;;5079838;28;20101;-68
2023/03/26 06:02:22;;;;;;;28.70;2.35;;;;;;;;;;5086674;28;20089;-68
2023/03/26 06:04:50;;;;;;;25.38;3.72;;;;;;;;;;5083313;28;20489;-67
2023/03/26 06:07:17;;;;;;;17.50;2.10;;;;;;;;;;5085525;28;20074;-68
2023/03/26 06:09:45;;;;;;;24.38;3.13;;;;;;;;;;5081805;28;20044;-68
2023/03/26 06:12:14;;;;;;;28.83;3.38;;;;;;;;;;5082611;28;20755;-68
2023/03/26 06:14:41;;;;;;;21.50;2.33;;;;;;;;;;5069585;28;20048;-68
2023/03/26 06:17:09;;;;;;;27.63;3.20;;;;;;;;;;5081537;28;20083;-68
2023/03/26 06:19:37;;;;;;;20.65;2.75;;;;;;;;;;5063372;28;20105;-68
2023/03/26 06:22:04;;;;;;;29.48;2.50;;;;;;;;;;5078469;28;20501;-67
2023/03/26 06:24:31;;;;;;;14.98;1.90;;;;;;;;;;5086856;28;20051;-68
2023/03/26 06:26:58;;;;;;;16.77;2.63;;;;;;;;;;5080535;28;20080;-68
2023/03/26 06:29:27;;;;;;;16.17;2.08;;;;;;;;;;5084233;28;20094;-68
2023/03/26 06:31:54;;;;;;;16.05;2.50;;;;;;;;;;5081368;28;20051;-67
2023/03/26 06:34:22;;;;;;;24.85;2.85;;;;;;;;;;5082495;28;20036;-68
2023/03/26 06:36:51;;;;;;;22.23;2.35;;;;;;;;;;5080697;28;20052;-68
2023/03/26 06:39:19;;;;;;;22.92;2.13;;;;;;;;;;5083155;28;20125;-68
2023/03/26 06:41:46;;;;;;;20.30;2.45;;;;;;;;;;5083423;28;20040;-68
2023/03/26 06:44:13;;;;;;;15.82;2.40;;;;;;;;;;5078348;28;20056;-68
2023/03/26 06:46:42;;;;;;;21.35;3.72;;;;;;;;;;5083865;28;20453;-68
2023/03/26 06:49:09;;;;;;;23.58;2.80;;;;;;;;;;5079372;28;20487;-68
2023/03/26 06:51:39;;;;;;;20.58;2.42;;;;;;;;;;5084359;28;20475;-68
2023/03/26 06:54:06;;;;;;;20.30;2.42;;;;;;;;;;5083177;28;20079;-67
2023/03/26 06:56:34;;;;;;;32.58;3.47;;;;;;;;;;5083666;28;20051;-67
2023/03/26 06:59:01;;;;;;;18.02;3.33;;;;;;;;;;5061601;28;20064;-68
2023/03/26 07:01:28;;;;;;;16.90;1.90;;;;;;;;;;5079565;28;20130;-67
2023/03/26 07:03:57;;;;;;;17.70;2.30;;;;;;;;;;5082046;28;20052;-67
2023/03/26 07:06:25;;;;;;;17.50;2.75;;;;;;;;;;5080712;28;20052;-67
2023/03/26 07:08:54;;;;;;;17.33;3.65;;;;;;;;;;5078737;28;20044;-67
2023/03/26 07:11:24;;;;;;;26.75;3.40;;;;;;;;;;5089806;28;20063;-68
2023/03/26 07:13:51;;;;;;;27.63;3.92;;;;;;;;;;5087177;28;20200;-68
2023/03/26 07:16:18;;;;;;;17.48;3.10;;;;;;;;;;5088171;28;20048;-68
2023/03/26 07:18:46;;;;;;;23.30;3.83;;;;;;;;;;5085323;28;20511;-68
2023/03/26 07:21:15;;;;;;;19.05;2.97;;;;;;;;;;5085725;28;20464;-68
2023/03/26 07:23:43;;;;;;;19.75;2.42;;;;;;;;;;5088128;28;20051;-70
2023/03/26 07:26:15;;;;;;;25.20;3.08;;;;;;;;;;5085325;28;20516;-68
2023/03/26 07:28:47;;;;;;;18.55;2.15;;;;;;;;;;5085586;28;20056;-69
2023/03/26 07:31:23;;;;;;;22.85;2.53;;;;;;;;;;5078020;28;20059;-68
2023/03/26 07:33:53;;;;;;;18.63;2.42;;;;;;;;;;5085471;28;20056;-68
2023/03/26 07:36:25;;;;;;;28.77;3.78;;;;;;;;;;5087230;28;20563;-69
2023/03/26 07:39:00;;;;;;;20.58;2.72;;;;;;;;;;5089916;28;20055;-68
2023/03/26 07:41:31;;;;;;;17.85;2.33;;;;;;;;;;5068674;28;20172;-68
2023/03/26 07:44:06;;;;;;;24.33;3.50;;;;;;;;;;5083022;28;20442;-68
2023/03/26 07:46:35;;;;;;;13.95;2.45;;;;;;;;;;5084577;28;20440;-68
2023/03/26 07:49:03;;;;;;;17.45;3.00;;;;;;;;;;5083555;28;20449;-68
2023/03/26 07:51:32;;;;;;;22.88;3.03;;;;;;;;;;5059575;28;20059;-68
2023/03/26 07:54:02;;;;;;;23.17;2.78;;;;;;;;;;5082607;28;20045;-68
2023/03/26 07:56:32;;;;;;;17.38;2.95;;;;;;;;;;5083464;28;20048;-68
2023/03/26 07:59:19;;;;;;;17.02;2.28;;;;;;;;;;5084409;28;20040;-68
2023/03/26 08:01:55;;;;;;;22.15;2.08;;;;;;;;;;5085718;28;20127;-73
2023/03/26 08:04:31;;;;;;;23.38;2.72;;;;;;;;;;5083270;28;20053;-73
2023/03/26 08:07:03;;;;;;;18.40;3.13;;;;;;;;;;5088487;28;20051;-73
2023/03/26 08:09:35;;;;;;;16.10;2.20;;;;;;;;;;5086870;28;20127;-73
2023/03/26 08:12:07;;;;;;;16.92;1.65;;;;;;;;;;5088628;28;20083;-73
2023/03/26 08:14:40;;;;;;;15.10;1.98;;;;;;;;;;5084795;28;20049;-73
2023/03/26 08:17:10;;;;;;;19.58;2.03;;;;;;;;;;5078357;28;20058;-73
2023/03/26 08:19:47;;;;;;;19.77;2.53;;;;;;;;;;5087148;28;20048;-73
2023/03/26 08:22:24;;;;;;;17.30;2.70;;;;;;;;;;5087824;28;20098;-73
2023/03/26 08:25:02;;;;;;;18.33;2.88;;;;;;;;;;5083195;28;20040;-73
2023/03/26 08:27:33;;;;;;;16.67;2.50;;;;;;;;;;5064224;28;20056;-73
2023/03/26 08:30:06;;;;;;;15.48;1.95;;;;;;;;;;5066623;28;20502;-72
2023/03/26 08:32:33;;;;;;;23.75;2.63;;;;;;;;;;5085042;28;20130;-73
2023/03/26 08:35:03;;;;;;;15.45;1.80;;;;;;;;;;5061798;28;20048;-73
2023/03/26 08:37:32;;;;;;;21.80;2.60;;;;;;;;;;5065319;28;20410;-72
2023/03/26 08:39:59;;;;;;;16.08;2.15;;;;;;;;;;5062634;28;20126;-73
2023/03/26 08:42:52;;;;;;;14.90;2.20;;;;;;;;;;5083681;28;20044;-73
2023/03/26 08:45:36;;;;;;;14.45;1.98;;;;;;;;;;5086132;28;20522;-73
2023/03/26 08:48:16;;;;;;;15.40;2.47;;;;;;;;;;5081094;28;20066;-73
2023/03/26 08:51:06;;;;;;;16.33;2.30;;;;;;;;;;5078437;28;20052;-73
2023/03/26 08:53:48;;;;;;;17.60;2.22;;;;;;;;;;5077039;28;20445;-73
2023/03/26 08:56:20;;;;;;;21.42;2.75;;;;;;;;;;5074102;28;20049;-73
2023/03/26 08:59:00;;;;;;;9.40;1.98;;;;;;;;;;5083981;28;20086;-73
2023/03/26 09:01:39;;;;;;;14.85;2.20;;;;;;;;;;5079810;28;20063;-73
2023/03/26 09:04:15;;;;;;;14.80;2.17;;;;;;;;;;5086571;28;20048;-73
2023/03/26 09:07:12;;;;;;;17.30;2.55;;;;;;;;;;5084275;28;20059;-73
2023/03/26 09:10:00;;;;;;;13.80;2.22;;;;;;;;;;5005050;28;20060;-73
2023/03/26 09:12:46;;;;;;;17.58;2.50;;;;;;;;;;5082438;28;20055;-73
2023/03/26 09:15:27;;;;;;;18.08;2.70;;;;;;;;;;5082538;28;20044;-72
2023/03/26 09:18:10;;;;;;;16.77;2.20;;;;;;;;;;5086351;28;20052;-73
2023/03/26 09:20:55;;;;;;;20.98;3.20;;;;;;;;;;5086260;28;20044;-73
2023/03/26 09:23:35;;;;;;;21.58;2.50;;;;;;;;;;5082807;28;20044;-72
2023/03/26 09:26:05;;;;;;;15.15;2.08;;;;;;;;;;5067775;28;20068;-79
2023/03/26 09:28:59;;;;;;;19.98;3.05;;;;;;;;;;5071905;28;20044;-69
2023/03/26 09:31:37;;;;;;;23.42;2.22;;;;;;;;;;5084996;28;20161;-70
2023/03/26 09:34:15;;;;;;;17.30;2.22;;;;;;;;;;5065155;28;20057;-70
2023/03/26 09:36:52;;;;;;;18.17;2.58;;;;;;;;;;5084049;28;20051;-69
2023/03/26 09:39:26;;;;;;;26.08;2.53;;;;;;;;;;5076347;28;20492;-70
2023/03/26 09:42:02;;;;;;;16.08;1.88;;;;;;;;;;5078792;28;20169;-70
2023/03/26 09:44:43;;;;;;;23.17;2.67;;;;;;;;;;5083083;28;20063;-69
2023/03/26 09:47:29;;;;;;;12.90;2.30;;;;;;;;;;5080006;28;20079;-69
2023/03/26 09:50:02;;;;;;;17.00;2.35;;;;;;;;;;5080569;28;20123;-70
2023/03/26 09:52:44;;;;;;;21.90;2.50;;;;;;;;;;5084761;28;20052;-68
2023/03/26 09:55:28;;;;;;;19.95;2.45;;;;;;;;;;5079930;28;20048;-70
2023/03/26 09:58:06;;;;;;;16.52;2.22;;;;;;;;;;5083561;28;20055;-69
2023/03/26 10:00:37;;;;;;;21.20;2.22;;;;;;;;;;5077871;28;20055;-70
2023/03/26 10:03:14;;;;;;;14.63;2.05;;;;;;;;;;5079134;28;20040;-70
2023/03/26 10:05:50;;;;;;;15.52;2.00;;;;;;;;;;5078351;28;20071;-69
2023/03/26 10:08:38;;;;;;;15.57;2.20;;;;;;;;;;5080769;28;20056;-69
2023/03/26 10:11:09;;;;;;;19.40;2.08;;;;;;;;;;5082730;28;20467;-70
2023/03/26 10:13:41;;;;;;;17.63;2.45;;;;;;;;;;5085736;28;20044;-70
2023/03/26 10:16:17;;;;;;;11.85;1.60;;;;;;;;;;5085050;28;20040;-69
2023/03/26 10:18:50;;;;;;;16.13;2.38;;;;;;;;;;5080856;28;20414;-70
2023/03/26 10:21:22;;;;;;;19.47;2.10;;;;;;;;;;5083799;28;20062;-70
2023/03/26 10:23:57;;;;;;;15.02;1.70;;;;;;;;;;5086428;28;20361;-70
2023/03/26 10:26:35;;;;;;;15.18;1.98;;;;;;;;;;5079996;28;20052;-69
2023/03/26 10:29:09;;;;;;;13.70;2.03;;;;;;;;;;5074288;28;20070;-70
2023/03/26 10:31:39;;;;;;;14.82;2.35;;;;;;;;;;5066401;28;20051;-70
2023/03/26 10:34:14;;;;;;;14.98;1.77;;;;;;;;;;5083440;28;20067;-67
2023/03/26 10:36:48;;;;;;;12.77;2.20;;;;;;;;;;5081347;28;20086;-67
2023/03/26 10:39:33;;;;;;;14.35;2.05;;;;;;;;;;5085074;28;20079;-68
2023/03/26 10:42:07;;;;;;;15.68;2.35;;;;;;;;;;5085365;28;20044;-67
2023/03/26 10:44:49;;;;;;;15.27;2.13;;;;;;;;;;5083939;28;20581;-68
2023/03/26 10:47:34;;;;;;;15.02;2.25;;;;;;;;;;5087894;28;20047;-68
2023/03/26 10:50:20;;;;;;;14.07;2.13;;;;;;;;;;5081313;28;20134;-67
2023/03/26 10:52:53;;;;;;;14.93;2.20;;;;;;;;;;5088220;28;20055;-68
2023/03/26 10:55:24;;;;;;;17.02;1.63;;;;;;;;;;5082004;28;20165;-68
2023/03/26 10:57:53;;;;;;;14.02;1.92;;;;;;;;;;5088146;28;20047;-68
2023/03/26 11:00:24;;;;;;;10.88;2.10;;;;;;;;;;5087861;28;20048;-68
2023/03/26 11:03:07;;;;;;;16.52;3.15;;;;;;;;;;5087743;28;20510;-68
2023/03/26 11:05:44;;;;;;;17.13;1.85;;;;;;;;;;5085943;28;20048;-68
2023/03/26 11:08:15;;;;;;;13.85;2.13;;;;;;;;;;5088556;28;20555;-67
2023/03/26 11:10:48;;;;;;;19.48;2.03;;;;;;;;;;5082249;28;20052;-68
2023/03/26 11:13:18;;;;;;;13.18;1.70;;;;;;;;;;5088109;28;20040;-67
2023/03/26 11:15:48;;;;;;;16.92;2.20;;;;;;;;;;5083357;28;20127;-67
2023/03/26 11:18:18;;;;;;;12.10;2.10;;;;;;;;;;5090464;28;20469;-67
2023/03/26 11:20:49;;;;;;;12.80;1.88;;;;;;;;;;5084859;28;20048;-67
2023/03/26 11:23:25;;;;;;;10.65;1.77;;;;;;;;;;5084021;28;20932;-67
2023/03/26 11:26:00;;;;;;;13.32;1.77;;;;;;;;;;5089776;28;20048;-67
2023/03/26 11:28:36;;;;;;;11.10;1.80;;;;;;;;;;5084854;28;20049;-67
2023/03/26 11:31:09;;;;;;;7.80;1.50;;;;;;;;;;5089769;28;20050;-67
2023/03/26 11:33:38;;;;;;;15.25;1.85;;;;;;;;;;5088892;28;20518;-67
2023/03/26 11:36:07;;;;;;;14.07;1.77;;;;;;;;;;5084433;28;20124;-67
2023/03/26 11:38:38;;;;;;;12.15;1.67;;;;;;;;;;5085812;28;20060;-67
2023/03/26 11:41:11;;;;;;;13.90;1.60;;;;;;;;;;5087252;28;20434;-67
2023/03/26 11:43:38;;;;;;;16.23;2.10;;;;;;;;;;5083006;28;20411;-68
2023/03/26 11:46:08;;;;;;;13.32;1.50;;;;;;;;;;5085065;28;20063;-67
2023/03/26 11:48:38;;;;;;;13.00;1.55;;;;;;;;;;5080040;28;20048;-67
2023/03/26 11:51:07;;;;;;;13.82;1.50;;;;;;;;;;5089166;28;20546;-67
2023/03/26 11:53:38;;;;;;;14.00;2.00;;;;;;;;;;5085339;28;20454;-67
2023/03/26 11:56:07;;;;;;;13.35;1.67;;;;;;;;;;5080859;28;20455;-67
2023/03/26 11:58:38;;;;;;;12.23;2.10;;;;;;;;;;5086547;28;20119;-67
2023/03/26 12:01:06;;;;;;;14.05;2.17;;;;;;;;;;5083278;28;20044;-67
2023/03/26 12:03:33;;;;;;;12.95;2.30;;;;;;;;;;5083006;28;20048;-67
2023/03/26 12:06:01;;;;;;;13.00;2.55;;;;;;;;;;5077453;28;20051;-67
2023/03/26 12:08:31;;;;;;;18.63;2.10;;;;;;;;;;5081801;28;20391;-67
2023/03/26 12:11:08;;;;;;;15.55;2.88;;;;;;;;;;5088200;28;20409;-67
2023/03/26 12:13:38;;;;;;;12.10;1.73;;;;;;;;;;5064373;28;20048;-67
2023/03/26 12:16:10;;;;;;;12.88;1.67;;;;;;;;;;5082310;28;20036;-67
2023/03/26 12:18:39;;;;;;;13.35;2.90;;;;;;;;;;5081969;28;20385;-67
2023/03/26 12:21:08;;;;;;;11.93;1.90;;;;;;;;;;5084124;28;20044;-67
2023/03/26 12:23:37;;;;;;;11.80;1.80;;;;;;;;;;5087834;28;20047;-67
2023/03/26 12:26:12;;;;;;;12.02;1.73;;;;;;;;;;5086373;28;20127;-67
2023/03/26 12:28:44;;;;;;;14.52;1.90;;;;;;;;;;5084703;28;20594;-67
2023/03/26 12:31:16;;;;;;;9.95;1.70;;;;;;;;;;5084251;28;20049;-67
2023/03/26 12:33:44;;;;;;;13.73;2.07;;;;;;;;;;5084410;28;20547;-67
2023/03/26 12:36:20;;;;;;;13.95;2.00;;;;;;;;;;5085025;28;20052;-66
2023/03/26 12:38:47;;;;;;;13.52;1.88;;;;;;;;;;5084580;28;20048;-75
2023/03/26 12:41:17;;;;;;;10.60;1.70;;;;;;;;;;5065393;28;20139;-73
2023/03/26 12:43:45;;;;;;;16.42;2.25;;;;;;;;;;5060591;28;20079;-74
2023/03/26 12:46:24;;;;;;;14.88;1.95;;;;;;;;;;5061904;28;20082;-70
2023/03/26 12:48:52;;;;;;;16.80;2.63;;;;;;;;;;5082962;28;20075;-70
2023/03/26 12:51:23;;;;;;;10.02;1.73;;;;;;;;;;5080092;28;20056;-66
2023/03/26 12:54:04;;;;;;;6.90;1.65;;;;;;;;;;5084297;28;20054;-66
2023/03/26 12:56:37;;;;;;;14.93;1.83;;;;;;;;;;5082260;28;21245;-66
2023/03/26 12:59:18;;;;;;;16.30;1.90;;;;;;;;;;5087283;28;20044;-66
2023/03/26 13:01:51;;;;;;;19.30;2.13;;;;;;;;;;5084891;28;20546;-67
2023/03/26 13:04:33;;;;;;;16.50;2.10;;;;;;;;;;5077003;28;20069;-68
2023/03/26 13:07:05;;;;;;;13.10;1.98;;;;;;;;;;5077997;28;20048;-68
2023/03/26 13:09:47;;;;;;;13.02;1.85;;;;;;;;;;5081753;28;20059;-67
2023/03/26 13:12:20;;;;;;;7.55;1.60;;;;;;;;;;5064316;28;20059;-67
2023/03/26 13:14:47;;;;;;;;;;;;;;;;;;5088786;28;20051;-67
2023/03/26 13:17:18;;;;;;;11.15;1.75;;;;;;;;;;5087041;28;19926;-65
2023/03/26 13:19:50;;;;;;;11.98;1.70;;;;;;;;;;5087717;28;20044;-65
2023/03/26 13:22:24;;;;;;;13.48;1.50;;;;;;;;;;5059760;28;20056;-65
2023/03/26 13:24:56;;;;;;;18.73;2.13;;;;;;;;;;5067355;28;20063;-65
2023/03/26 13:27:32;;;;;;;14.95;2.00;;;;;;;;;;5077920;28;20059;-65
2023/03/26 13:30:02;;;;;;;13.15;1.55;;;;;;;;;;5083894;28;20040;-67
2023/03/26 13:32:37;;;;;;;12.32;2.80;;;;;;;;;;5085589;28;20040;-68
2023/03/26 13:35:13;;;;;;;12.73;2.15;;;;;;;;;;5084608;28;20044;-67
2023/03/26 13:37:48;;;;;;;10.77;1.60;;;;;;;;;;5083315;28;20078;-68
2023/03/26 13:40:23;;;;;;;10.65;1.73;;;;;;;;;;5084366;28;20059;-68
2023/03/26 13:42:59;;;;;;;26.02;3.50;;;;;;;;;;5087412;28;20044;-68
2023/03/26 13:45:34;;;;;;;18.05;3.60;;;;;;;;;;5066038;28;20127;-65
2023/03/26 13:48:03;;;;;;;18.13;2.22;;;;;;;;;;5081839;28;20048;-65
2023/03/26 13:50:31;;;;;;;17.73;3.67;;;;;;;;;;5084259;28;20043;-65
2023/03/26 13:53:00;;;;;;;12.98;2.10;;;;;;;;;;5076377;28;20048;-65
2023/03/26 13:55:30;;;;;;;12.23;1.98;;;;;;;;;;5083428;28;20047;-66
2023/03/26 13:58:03;;;;;;;9.93;1.30;;;;;;;;;;5078824;28;20052;-65
2023/03/26 14:00:38;;;;;;;13.02;1.83;;;;;;;;;;5085974;28;20048;-65
2023/03/26 14:03:11;;;;;;;14.70;2.28;;;;;;;;;;5086440;28;20051;-65
2023/03/26 14:05:40;;;;;;;8.93;1.80;;;;;;;;;;5087433;28;20054;-65
2023/03/26 14:08:12;;;;;;;8.70;1.25;;;;;;;;;;5081094;28;20111;-65
2023/03/26 14:10:41;;;;;;;11.10;1.70;;;;;;;;;;5083348;28;20048;-65
2023/03/26 14:13:14;;;;;;;8.73;1.60;;;;;;;;;;5086606;28;20040;-64
2023/03/26 14:15:43;;;;;;;13.30;2.55;;;;;;;;;;5077438;28;20056;-65
2023/03/26 14:18:17;;;;;;;10.82;1.45;;;;;;;;;;5079710;28;20044;-65
2023/03/26 14:21:06;;;;;;;10.15;1.80;;;;;;;;;;5087022;28;20394;-65
2023/03/26 14:23:39;;;;;;;14.70;2.22;;;;;;;;;;5086984;28;20040;-65
2023/03/26 14:26:15;;;;;;;12.90;2.63;;;;;;;;;;5087346;28;20058;-65
2023/03/26 14:29:09;;;;;;;10.52;2.10;;;;;;;;;;5085977;28;20052;-65
2023/03/26 14:31:39;;;;;;;12.48;1.85;;;;;;;;;;5087479;28;20082;-65
2023/03/26 14:34:21;;;;;;;11.38;1.60;;;;;;;;;;5088885;28;20052;-65
2023/03/26 14:37:06;;;;;;;13.02;1.90;;;;;;;;;;5079556;28;20056;-66
2023/03/26 14:39:51;;;;;;;20.45;3.20;;;;;;;;;;5085168;28;20049;-65
2023/03/26 14:42:19;;;;;;;9.20;1.45;;;;;;;;;;5073077;28;20051;-65
2023/03/26 14:45:07;;;;;;;9.70;1.42;;;;;;;;;;5076371;28;20419;-65
2023/03/26 14:47:38;;;;;;;12.73;1.80;;;;;;;;;;5079895;28;20044;-65
2023/03/26 14:50:34;;;;;;;14.48;1.45;;;;;;;;;;5075836;28;20060;-65
2023/03/26 14:53:04;;;;;;;6.97;1.40;;;;;;;;;;5087730;28;20052;-64
2023/03/26 14:55:42;;;;;;;7.43;1.60;;;;;;;;;;5072829;28;20376;-65